Terminal Aerodrome Forecast
Issued by NWS

Home | Current Version | Previous Version | Text Only | Print | Product List | Glossary On
Versions: 1 2 3 4 5 6 7 8 9 10 11 12 13 14
260
FTUS46 KMTR 250636 AAA
TAFMRY
TAF AMD
KMRY 250636Z 2507/2606 15004KT P6SM SCT030
      TEMPO 2507/2509 BKN030
     FM250900 12004KT P6SM BKN030
     FM251500 VRB04KT P6SM SCT040 BKN100
     FM252100 27005KT P6SM BKN060
     FM260300 27006KT P6SM VCSH BKN050=

USA.gov is the U.S. government's official web portal to all federal, state and local government web resources and services.